sensor_id;sensor_type;location;lat;lon;timestamp;P1;durP1;ratioP1;P2;durP2;ratioP2
44572;SDS011;31762;45.420;10.072;2022-10-04T00:03:32;9.13;;;7.18;;
44572;SDS011;31762;45.420;10.072;2022-10-04T00:08:57;8.63;;;7.07;;
44572;SDS011;31762;45.420;10.072;2022-10-04T00:14:29;8.57;;;6.50;;
44572;SDS011;31762;45.420;10.072;2022-10-04T00:19:39;8.17;;;6.50;;
44572;SDS011;31762;45.420;10.072;2022-10-04T00:30:20;7.20;;;6.00;;
44572;SDS011;31762;45.420;10.072;2022-10-04T00:45:58;7.65;;;6.22;;
44572;SDS011;31762;45.420;10.072;2022-10-04T00:56:30;7.97;;;6.40;;
44572;SDS011;31762;45.420;10.072;2022-10-04T01:01:43;8.68;;;6.53;;
44572;SDS011;31762;45.420;10.072;2022-10-04T01:06:49;9.40;;;6.43;;
44572;SDS011;31762;45.420;10.072;2022-10-04T01:11:56;8.80;;;5.85;;
44572;SDS011;31762;45.420;10.072;2022-10-04T01:17:03;6.90;;;5.67;;
44572;SDS011;31762;45.420;10.072;2022-10-04T01:22:10;7.85;;;5.72;;
44572;SDS011;31762;45.420;10.072;2022-10-04T01:27:34;7.22;;;5.72;;
44572;SDS011;31762;45.420;10.072;2022-10-04T01:32:37;9.25;;;5.95;;
44572;SDS011;31762;45.420;10.072;2022-10-04T01:37:40;6.70;;;5.43;;
44572;SDS011;31762;45.420;10.072;2022-10-04T01:42:46;9.02;;;5.78;;
44572;SDS011;31762;45.420;10.072;2022-10-04T01:47:52;8.73;;;5.85;;
44572;SDS011;31762;45.420;10.072;2022-10-04T01:53:00;6.77;;;5.13;;
44572;SDS011;31762;45.420;10.072;2022-10-04T01:58:17;7.82;;;5.53;;
44572;SDS011;31762;45.420;10.072;2022-10-04T02:03:27;6.82;;;5.05;;
44572;SDS011;31762;45.420;10.072;2022-10-04T02:08:34;7.77;;;5.70;;
44572;SDS011;31762;45.420;10.072;2022-10-04T02:13:40;5.18;;;4.30;;
44572;SDS011;31762;45.420;10.072;2022-10-04T02:18:43;8.43;;;5.20;;
44572;SDS011;31762;45.420;10.072;2022-10-04T02:23:46;4.90;;;4.40;;
44572;SDS011;31762;45.420;10.072;2022-10-04T02:28:48;7.80;;;5.33;;
44572;SDS011;31762;45.420;10.072;2022-10-04T02:33:51;8.95;;;4.97;;
44572;SDS011;31762;45.420;10.072;2022-10-04T02:39:03;8.05;;;4.47;;
44572;SDS011;31762;45.420;10.072;2022-10-04T02:49:37;5.07;;;4.00;;
44572;SDS011;31762;45.420;10.072;2022-10-04T02:54:47;5.82;;;3.88;;
44572;SDS011;31762;45.420;10.072;2022-10-04T03:00:23;4.53;;;4.05;;
44572;SDS011;31762;45.420;10.072;2022-10-04T03:05:26;8.65;;;4.00;;
44572;SDS011;31762;45.420;10.072;2022-10-04T03:10:28;5.80;;;3.83;;
44572;SDS011;31762;45.420;10.072;2022-10-04T03:15:30;5.85;;;4.78;;
44572;SDS011;31762;45.420;10.072;2022-10-04T03:20:35;5.65;;;4.18;;
44572;SDS011;31762;45.420;10.072;2022-10-04T03:25:47;6.30;;;4.65;;
44572;SDS011;31762;45.420;10.072;2022-10-04T03:30:58;5.80;;;4.35;;
44572;SDS011;31762;45.420;10.072;2022-10-04T03:36:00;9.10;;;4.30;;
44572;SDS011;31762;45.420;10.072;2022-10-04T03:41:03;5.68;;;4.15;;
44572;SDS011;31762;45.420;10.072;2022-10-04T03:46:05;6.45;;;4.53;;
44572;SDS011;31762;45.420;10.072;2022-10-04T03:51:12;6.50;;;5.20;;
44572;SDS011;31762;45.420;10.072;2022-10-04T03:56:27;5.17;;;4.60;;
44572;SDS011;31762;45.420;10.072;2022-10-04T04:11:57;4.53;;;3.75;;
44572;SDS011;31762;45.420;10.072;2022-10-04T04:17:27;6.13;;;4.40;;
44572;SDS011;31762;45.420;10.072;2022-10-04T04:22:34;6.17;;;4.60;;
44572;SDS011;31762;45.420;10.072;2022-10-04T04:27:37;6.00;;;4.18;;
44572;SDS011;31762;45.420;10.072;2022-10-04T04:32:40;4.97;;;4.47;;
44572;SDS011;31762;45.420;10.072;2022-10-04T04:43:23;7.72;;;4.68;;
44572;SDS011;31762;45.420;10.072;2022-10-04T04:48:27;5.72;;;3.97;;
44572;SDS011;31762;45.420;10.072;2022-10-04T04:53:29;6.45;;;4.40;;
44572;SDS011;31762;45.420;10.072;2022-10-04T04:58:34;7.97;;;5.13;;
44572;SDS011;31762;45.420;10.072;2022-10-04T05:03:38;6.22;;;5.35;;
44572;SDS011;31762;45.420;10.072;2022-10-04T05:08:47;8.27;;;5.95;;
44572;SDS011;31762;45.420;10.072;2022-10-04T05:13:54;8.10;;;5.90;;
44572;SDS011;31762;45.420;10.072;2022-10-04T05:19:00;9.50;;;6.07;;
44572;SDS011;31762;45.420;10.072;2022-10-04T05:24:10;6.40;;;5.15;;
44572;SDS011;31762;45.420;10.072;2022-10-04T05:29:15;6.15;;;5.10;;
44572;SDS011;31762;45.420;10.072;2022-10-04T05:34:24;8.23;;;5.05;;
44572;SDS011;31762;45.420;10.072;2022-10-04T05:39:32;7.60;;;4.87;;
44572;SDS011;31762;45.420;10.072;2022-10-04T05:44:53;7.70;;;5.37;;
44572;SDS011;31762;45.420;10.072;2022-10-04T05:49:57;6.70;;;4.53;;
44572;SDS011;31762;45.420;10.072;2022-10-04T05:55:19;6.73;;;5.57;;
44572;SDS011;31762;45.420;10.072;2022-10-04T06:06:15;5.30;;;4.13;;
44572;SDS011;31762;45.420;10.072;2022-10-04T06:22:26;6.07;;;4.88;;
44572;SDS011;31762;45.420;10.072;2022-10-04T06:38:35;5.40;;;4.17;;
44572;SDS011;31762;45.420;10.072;2022-10-04T06:49:17;7.65;;;4.93;;
44572;SDS011;31762;45.420;10.072;2022-10-04T07:15:46;7.57;;;4.90;;
44572;SDS011;31762;45.420;10.072;2022-10-04T07:20:59;7.80;;;5.55;;
44572;SDS011;31762;45.420;10.072;2022-10-04T07:31:31;5.90;;;5.00;;
44572;SDS011;31762;45.420;10.072;2022-10-04T07:41:51;8.98;;;6.55;;
44572;SDS011;31762;45.420;10.072;2022-10-04T07:47:01;6.93;;;4.90;;
44572;SDS011;31762;45.420;10.072;2022-10-04T07:58:00;4.90;;;3.70;;
44572;SDS011;31762;45.420;10.072;2022-10-04T08:09:15;4.53;;;3.50;;
44572;SDS011;31762;45.420;10.072;2022-10-04T08:14:53;4.82;;;2.85;;
44572;SDS011;31762;45.420;10.072;2022-10-04T08:47:47;4.70;;;2.20;;
44572;SDS011;31762;45.420;10.072;2022-10-04T09:10:03;5.07;;;2.58;;
44572;SDS011;31762;45.420;10.072;2022-10-04T09:20:50;4.95;;;3.20;;
44572;SDS011;31762;45.420;10.072;2022-10-04T09:52:52;5.63;;;4.75;;
44572;SDS011;31762;45.420;10.072;2022-10-04T10:03:51;6.43;;;4.60;;
44572;SDS011;31762;45.420;10.072;2022-10-04T10:40:47;9.63;;;7.43;;
44572;SDS011;31762;45.420;10.072;2022-10-04T11:28:48;14.02;;;11.80;;
44572;SDS011;31762;45.420;10.072;2022-10-04T11:34:16;13.63;;;10.77;;
44572;SDS011;31762;45.420;10.072;2022-10-04T11:44:56;14.20;;;11.43;;
44572;SDS011;31762;45.420;10.072;2022-10-04T11:50:26;15.33;;;11.93;;
44572;SDS011;31762;45.420;10.072;2022-10-04T11:56:00;13.60;;;11.87;;
44572;SDS011;31762;45.420;10.072;2022-10-04T12:22:18;18.85;;;13.05;;
44572;SDS011;31762;45.420;10.072;2022-10-04T12:33:05;15.95;;;12.40;;
44572;SDS011;31762;45.420;10.072;2022-10-04T12:54:52;17.17;;;13.93;;
44572;SDS011;31762;45.420;10.072;2022-10-04T13:05:20;16.17;;;13.00;;
44572;SDS011;31762;45.420;10.072;2022-10-04T13:26:42;15.00;;;11.75;;
44572;SDS011;31762;45.420;10.072;2022-10-04T13:32:06;20.05;;;12.75;;
44572;SDS011;31762;45.420;10.072;2022-10-04T13:53:03;15.10;;;11.87;;
44572;SDS011;31762;45.420;10.072;2022-10-04T13:58:33;16.08;;;12.63;;
44572;SDS011;31762;45.420;10.072;2022-10-04T14:26:28;15.82;;;11.32;;
44572;SDS011;31762;45.420;10.072;2022-10-04T14:37:37;14.57;;;11.18;;
44572;SDS011;31762;45.420;10.072;2022-10-04T14:53:54;15.88;;;11.75;;
44572;SDS011;31762;45.420;10.072;2022-10-04T14:59:22;15.15;;;11.93;;
44572;SDS011;31762;45.420;10.072;2022-10-04T15:05:06;16.03;;;12.07;;
44572;SDS011;31762;45.420;10.072;2022-10-04T15:10:31;16.48;;;12.50;;
44572;SDS011;31762;45.420;10.072;2022-10-04T15:15:48;15.27;;;11.80;;
44572;SDS011;31762;45.420;10.072;2022-10-04T15:20:57;18.30;;;12.68;;
44572;SDS011;31762;45.420;10.072;2022-10-04T15:31:48;17.80;;;12.82;;
44572;SDS011;31762;45.420;10.072;2022-10-04T15:37:06;14.53;;;11.67;;
44572;SDS011;31762;45.420;10.072;2022-10-04T15:58:21;17.33;;;12.50;;
44572;SDS011;31762;45.420;10.072;2022-10-04T16:36:12;15.73;;;12.37;;
44572;SDS011;31762;45.420;10.072;2022-10-04T16:41:28;18.73;;;13.27;;
44572;SDS011;31762;45.420;10.072;2022-10-04T16:46:37;17.40;;;13.47;;
44572;SDS011;31762;45.420;10.072;2022-10-04T16:51:53;19.27;;;12.50;;
44572;SDS011;31762;45.420;10.072;2022-10-04T16:57:14;17.60;;;12.73;;
44572;SDS011;31762;45.420;10.072;2022-10-04T17:13:24;16.73;;;13.45;;
44572;SDS011;31762;45.420;10.072;2022-10-04T17:35:02;21.35;;;16.05;;
44572;SDS011;31762;45.420;10.072;2022-10-04T17:56:02;21.92;;;15.98;;
44572;SDS011;31762;45.420;10.072;2022-10-04T18:01:09;20.92;;;16.27;;
44572;SDS011;31762;45.420;10.072;2022-10-04T18:06:38;21.67;;;16.02;;
44572;SDS011;31762;45.420;10.072;2022-10-04T18:11:55;22.02;;;15.27;;
44572;SDS011;31762;45.420;10.072;2022-10-04T18:17:20;19.33;;;14.48;;
44572;SDS011;31762;45.420;10.072;2022-10-04T18:22:41;19.73;;;15.87;;
44572;SDS011;31762;45.420;10.072;2022-10-04T18:27:49;18.20;;;14.20;;
44572;SDS011;31762;45.420;10.072;2022-10-04T18:32:53;21.80;;;15.32;;
44572;SDS011;31762;45.420;10.072;2022-10-04T18:37:56;21.58;;;15.70;;
44572;SDS011;31762;45.420;10.072;2022-10-04T18:48:36;22.00;;;15.65;;
44572;SDS011;31762;45.420;10.072;2022-10-04T18:59:43;23.88;;;16.83;;
44572;SDS011;31762;45.420;10.072;2022-10-04T19:10:17;19.33;;;15.23;;
44572;SDS011;31762;45.420;10.072;2022-10-04T19:20:47;19.13;;;14.50;;
44572;SDS011;31762;45.420;10.072;2022-10-04T19:26:02;17.27;;;12.73;;
44572;SDS011;31762;45.420;10.072;2022-10-04T19:36:43;17.13;;;13.27;;
44572;SDS011;31762;45.420;10.072;2022-10-04T19:41:58;18.27;;;12.68;;
44572;SDS011;31762;45.420;10.072;2022-10-04T19:52:47;17.92;;;13.40;;
44572;SDS011;31762;45.420;10.072;2022-10-04T20:03:26;16.73;;;12.27;;
44572;SDS011;31762;45.420;10.072;2022-10-04T20:19:13;18.00;;;13.10;;
44572;SDS011;31762;45.420;10.072;2022-10-04T20:24:47;19.08;;;12.88;;
44572;SDS011;31762;45.420;10.072;2022-10-04T20:44:51;19.75;;;14.00;;
44572;SDS011;31762;45.420;10.072;2022-10-04T20:49:54;19.58;;;13.80;;
44572;SDS011;31762;45.420;10.072;2022-10-04T20:54:58;18.33;;;13.57;;
44572;SDS011;31762;45.420;10.072;2022-10-04T21:00:00;17.15;;;12.82;;
44572;SDS011;31762;45.420;10.072;2022-10-04T21:05:17;20.17;;;13.73;;
44572;SDS011;31762;45.420;10.072;2022-10-04T21:10:23;18.15;;;14.38;;
44572;SDS011;31762;45.420;10.072;2022-10-04T21:15:25;21.10;;;13.32;;
44572;SDS011;31762;45.420;10.072;2022-10-04T21:20:42;15.90;;;12.63;;
44572;SDS011;31762;45.420;10.072;2022-10-04T21:25:51;19.57;;;12.03;;
44572;SDS011;31762;45.420;10.072;2022-10-04T21:31:22;17.05;;;12.43;;
44572;SDS011;31762;45.420;10.072;2022-10-04T21:36:25;14.52;;;11.35;;
44572;SDS011;31762;45.420;10.072;2022-10-04T21:41:27;15.50;;;12.03;;
44572;SDS011;31762;45.420;10.072;2022-10-04T21:46:28;17.02;;;11.43;;
44572;SDS011;31762;45.420;10.072;2022-10-04T21:51:30;16.45;;;12.10;;
44572;SDS011;31762;45.420;10.072;2022-10-04T21:56:32;15.80;;;11.83;;
44572;SDS011;31762;45.420;10.072;2022-10-04T22:01:34;17.63;;;12.32;;
44572;SDS011;31762;45.420;10.072;2022-10-04T22:06:36;18.35;;;12.55;;
44572;SDS011;31762;45.420;10.072;2022-10-04T22:11:37;16.17;;;12.15;;
44572;SDS011;31762;45.420;10.072;2022-10-04T22:16:39;14.98;;;11.73;;
44572;SDS011;31762;45.420;10.072;2022-10-04T22:21:41;15.38;;;11.32;;
44572;SDS011;31762;45.420;10.072;2022-10-04T22:26:42;17.37;;;12.47;;
44572;SDS011;31762;45.420;10.072;2022-10-04T22:31:46;16.20;;;11.65;;
44572;SDS011;31762;45.420;10.072;2022-10-04T22:36:50;18.13;;;11.48;;
44572;SDS011;31762;45.420;10.072;2022-10-04T22:41:52;15.93;;;12.33;;
44572;SDS011;31762;45.420;10.072;2022-10-04T22:46:58;13.80;;;10.00;;
44572;SDS011;31762;45.420;10.072;2022-10-04T22:52:05;15.65;;;10.80;;
44572;SDS011;31762;45.420;10.072;2022-10-04T22:57:15;13.27;;;10.45;;
44572;SDS011;31762;45.420;10.072;2022-10-04T23:02:19;14.07;;;10.63;;
44572;SDS011;31762;45.420;10.072;2022-10-04T23:07:23;15.77;;;10.10;;
44572;SDS011;31762;45.420;10.072;2022-10-04T23:12:24;11.98;;;9.82;;
44572;SDS011;31762;45.420;10.072;2022-10-04T23:17:32;13.32;;;9.90;;
44572;SDS011;31762;45.420;10.072;2022-10-04T23:22:35;11.77;;;9.77;;
44572;SDS011;31762;45.420;10.072;2022-10-04T23:27:37;12.00;;;8.73;;
44572;SDS011;31762;45.420;10.072;2022-10-04T23:32:39;13.13;;;9.50;;
44572;SDS011;31762;45.420;10.072;2022-10-04T23:37:42;12.13;;;9.18;;
44572;SDS011;31762;45.420;10.072;2022-10-04T23:42:43;14.60;;;9.37;;
44572;SDS011;31762;45.420;10.072;2022-10-04T23:47:52;11.65;;;8.85;;
44572;SDS011;31762;45.420;10.072;2022-10-04T23:52:57;12.48;;;9.20;;
44572;SDS011;31762;45.420;10.072;2022-10-04T23:58:04;11.05;;;8.43;;
